Terminal Aerodrome Forecast
Issued by NWS

Home | Current Version | Previous Version | Text Only | Print | Product List | Glossary On
Versions: 1 2 3 4 5 6 7 8 9 10 11 12 13
000
FTUS42 TJSJ 011127
TAFKPK
TAF
TKPK 011127Z 0112/0212 05007KT P6SM VCTS SCT018CB SCT030
     FM011230 07010KT P6SM VCTS SCT018CB BKN040 BKN120
     FM011700 08012KT P6SM VCSH BKN018
     FM012300 08009KT P6SM SCT022
      AMD NOT SKED 0202/0211=

USA.gov is the U.S. government's official web portal to all federal, state and local government web resources and services.